Time,TemperatureF,DewpointF,PressureIn,WindDirection,WindDirectionDegrees,WindSpeedMPH,WindSpeedGustMPH,Humidity,HourlyPrecipIn,Conditions,Clouds,dailyrainin,SoftwareType,DateUTC
2013-09-13 00:05:00,70.5,69.6,29.93,NW,311,0.0,0.0,97,0.00,,,0.00,Wunderground v.1.15,2013-09-13 04:05:00,
2013-09-13 00:10:00,70.5,69.6,29.93,NW,311,0.0,0.0,97,0.00,,,0.00,Wunderground v.1.15,2013-09-13 04:10:00,
2013-09-13 00:15:00,70.5,69.6,29.93,NW,311,0.0,0.0,97,0.00,,,0.00,Wunderground v.1.15,2013-09-13 04:15:00,
2013-09-13 00:20:00,70.5,69.6,29.92,NW,311,0.0,0.0,97,0.00,,,0.00,Wunderground v.1.15,2013-09-13 04:20:00,
2013-09-13 00:25:00,70.5,69.6,29.92,NW,311,0.0,0.0,97,0.00,,,0.00,Wunderground v.1.15,2013-09-13 04:25:00,
2013-09-13 00:30:00,70.5,69.6,29.92,NW,311,0.0,0.0,97,0.00,,,0.00,Wunderground v.1.15,2013-09-13 04:30:00,
2013-09-13 00:35:00,70.5,69.6,29.91,NW,311,0.0,0.0,97,0.00,,,0.00,Wunderground v.1.15,2013-09-13 04:35:00,
2013-09-13 00:40:00,70.4,69.2,29.91,NW,311,0.0,0.0,96,0.00,,,0.00,Wunderground v.1.15,2013-09-13 04:40:00,
2013-09-13 00:45:00,70.3,69.1,29.91,NW,311,0.0,0.0,96,0.00,,,0.00,Wunderground v.1.15,2013-09-13 04:45:00,
2013-09-13 00:55:00,70.2,69.0,29.90,NW,311,0.0,0.0,96,0.00,,,0.00,Wunderground v.1.15,2013-09-13 04:55:00,
2013-09-13 01:00:00,70.2,69.0,29.91,NW,311,0.0,0.0,96,0.00,,,0.00,Wunderground v.1.15,2013-09-13 05:00:00,
2013-09-13 01:05:00,70.1,68.9,29.90,NW,311,0.0,0.0,96,0.00,,,0.00,Wunderground v.1.15,2013-09-13 05:05:00,
2013-09-13 01:10:00,70.0,68.8,29.90,NW,311,0.0,0.0,96,0.00,,,0.00,Wunderground v.1.15,2013-09-13 05:10:00,
2013-09-13 01:15:00,70.0,69.1,29.90,NW,311,0.0,0.0,97,0.00,,,0.00,Wunderground v.1.15,2013-09-13 05:15:00,
2013-09-13 01:20:00,70.0,69.1,29.90,NW,311,0.0,0.0,97,0.00,,,0.00,Wunderground v.1.15,2013-09-13 05:20:00,
2013-09-13 01:25:00,70.0,69.1,29.90,NW,311,0.0,0.0,97,0.00,,,0.00,Wunderground v.1.15,2013-09-13 05:25:00,
2013-09-13 01:30:00,70.1,69.2,29.90,NW,311,0.0,0.0,97,0.00,,,0.00,Wunderground v.1.15,2013-09-13 05:30:00,
2013-09-13 01:40:00,70.2,69.3,29.89,NW,311,0.0,0.0,97,0.00,,,0.00,Wunderground v.1.15,2013-09-13 05:40:00,
2013-09-13 01:45:00,70.2,69.3,29.89,NW,311,0.0,0.0,97,0.00,,,0.00,Wunderground v.1.15,2013-09-13 05:45:00,
2013-09-13 01:50:00,70.2,69.3,29.89,NW,311,0.0,0.0,97,0.00,,,0.00,Wunderground v.1.15,2013-09-13 05:50:00,
2013-09-13 02:00:00,70.5,69.6,29.89,NW,311,0.0,0.0,97,0.00,,,0.00,Wunderground v.1.15,2013-09-13 06:00:00,
2013-09-13 02:10:00,71.0,70.1,29.89,NW,305,0.0,0.0,97,0.00,,,0.00,Wunderground v.1.15,2013-09-13 06:10:00,
2013-09-13 02:15:00,71.2,70.3,29.88,NW,305,0.0,0.0,97,0.00,,,0.00,Wunderground v.1.15,2013-09-13 06:15:00,
2013-09-13 02:20:00,71.3,70.4,29.88,NW,304,0.0,0.0,97,0.00,,,0.00,Wunderground v.1.15,2013-09-13 06:20:00,
2013-09-13 02:25:00,71.4,70.5,29.88,NW,305,0.0,0.0,97,0.00,,,0.00,Wunderground v.1.15,2013-09-13 06:25:00,
2013-09-13 02:30:00,71.5,70.3,29.88,NW,305,0.0,0.0,96,0.00,,,0.00,Wunderground v.1.15,2013-09-13 06:30:00,
2013-09-13 02:40:00,71.7,70.5,29.88,South,187,0.0,0.0,96,0.00,,,0.00,Wunderground v.1.15,2013-09-13 06:40:00,
2013-09-13 02:50:00,71.9,70.7,29.87,South,188,0.0,0.0,96,0.00,,,0.00,Wunderground v.1.15,2013-09-13 06:50:00,
2013-09-13 02:55:00,72.0,70.8,29.87,South,188,0.0,0.0,96,0.00,,,0.00,Wunderground v.1.15,2013-09-13 06:55:00,
2013-09-13 03:00:00,72.2,71.0,29.87,South,187,0.0,0.0,96,0.00,,,0.00,Wunderground v.1.15,2013-09-13 07:00:00,
2013-09-13 03:10:00,72.4,70.9,29.87,South,188,0.0,0.0,95,0.00,,,0.00,Wunderground v.1.15,2013-09-13 07:10:00,
2013-09-13 03:15:00,72.4,70.9,29.87,South,188,0.0,0.0,95,0.00,,,0.00,Wunderground v.1.15,2013-09-13 07:15:00,
2013-09-13 03:20:00,72.3,70.8,29.87,South,188,0.0,0.0,95,0.00,,,0.00,Wunderground v.1.15,2013-09-13 07:20:00,
2013-09-13 03:25:00,72.3,70.8,29.87,South,191,0.0,0.0,95,0.00,,,0.00,Wunderground v.1.15,2013-09-13 07:25:00,
2013-09-13 03:30:00,72.3,70.8,29.87,South,191,0.0,0.0,95,0.00,,,0.00,Wunderground v.1.15,2013-09-13 07:30:00,
2013-09-13 03:40:00,72.1,70.6,29.86,South,191,0.0,0.0,95,0.00,,,0.00,Wunderground v.1.15,2013-09-13 07:40:00,
2013-09-13 03:50:00,71.9,70.4,29.86,South,191,0.0,0.0,95,0.00,,,0.00,Wunderground v.1.15,2013-09-13 07:50:00,
2013-09-13 03:55:00,71.8,70.3,29.86,South,191,0.0,0.0,95,0.00,,,0.00,Wunderground v.1.15,2013-09-13 07:55:00,
2013-09-13 04:00:00,71.8,70.3,29.86,South,191,0.0,0.0,95,0.00,,,0.00,Wunderground v.1.15,2013-09-13 08:00:00,
2013-09-13 04:10:00,72.0,70.5,29.85,West,267,0.0,0.0,95,0.00,,,0.00,Wunderground v.1.15,2013-09-13 08:10:00,
2013-09-13 04:15:00,72.0,70.2,29.85,West,269,0.0,0.0,94,0.00,,,0.00,Wunderground v.1.15,2013-09-13 08:15:00,
2013-09-13 04:25:00,72.1,70.3,29.85,WNW,286,1.0,1.0,94,0.00,,,0.00,Wunderground v.1.15,2013-09-13 08:25:00,
2013-09-13 04:30:00,72.2,70.4,29.85,West,275,1.0,1.0,94,0.00,,,0.00,Wunderground v.1.15,2013-09-13 08:30:00,
2013-09-13 04:35:00,72.2,70.1,29.85,West,277,1.0,1.0,93,0.00,,,0.00,Wunderground v.1.15,2013-09-13 08:35:00,
2013-09-13 04:45:00,72.2,70.1,29.86,West,273,1.0,1.0,93,0.00,,,0.00,Wunderground v.1.15,2013-09-13 08:45:00,
2013-09-13 04:50:00,72.2,70.1,29.86,West,259,1.0,1.0,93,0.00,,,0.00,Wunderground v.1.15,2013-09-13 08:50:00,
2013-09-13 05:00:00,72.1,70.0,29.86,WNW,286,1.0,1.0,93,0.00,,,0.00,Wunderground v.1.15,2013-09-13 09:00:00,
2013-09-13 05:10:00,72.0,69.5,29.86,WSW,237,0.0,1.0,92,0.00,,,0.00,Wunderground v.1.15,2013-09-13 09:10:00,
2013-09-13 05:15:00,71.9,69.8,29.86,WSW,238,0.0,1.0,93,0.00,,,0.00,Wunderground v.1.15,2013-09-13 09:15:00,
2013-09-13 05:20:00,71.7,69.6,29.86,WSW,237,0.0,0.0,93,0.00,,,0.00,Wunderground v.1.15,2013-09-13 09:20:00,
2013-09-13 05:25:00,71.6,69.5,29.86,WSW,237,0.0,0.0,93,0.00,,,0.00,Wunderground v.1.15,2013-09-13 09:25:00,
2013-09-13 05:30:00,71.5,69.4,29.86,WSW,238,0.0,0.0,93,0.00,,,0.00,Wunderground v.1.15,2013-09-13 09:30:00,
2013-09-13 05:40:00,71.4,69.3,29.86,West,274,1.0,1.0,93,0.00,,,0.00,Wunderground v.1.15,2013-09-13 09:40:00,
2013-09-13 05:50:00,71.4,69.3,29.86,WSW,242,0.0,0.0,93,0.00,,,0.00,Wunderground v.1.15,2013-09-13 09:50:00,
2013-09-13 05:55:00,71.4,69.3,29.86,WSW,243,0.0,0.0,93,0.00,,,0.00,Wunderground v.1.15,2013-09-13 09:55:00,
2013-09-13 06:00:00,71.4,69.3,29.86,NW,311,1.0,1.0,93,0.00,,,0.00,Wunderground v.1.15,2013-09-13 10:00:00,
2013-09-13 06:10:00,71.4,69.0,29.86,NW,305,0.0,0.0,92,0.00,,,0.00,Wunderground v.1.15,2013-09-13 10:10:00,
2013-09-13 06:15:00,71.3,69.2,29.86,WNW,301,0.0,1.0,93,0.00,,,0.00,Wunderground v.1.15,2013-09-13 10:15:00,
2013-09-13 06:20:00,71.3,68.9,29.86,WNW,300,0.0,0.0,92,0.00,,,0.00,Wunderground v.1.15,2013-09-13 10:20:00,
2013-09-13 06:25:00,71.3,69.2,29.86,WNW,294,1.0,2.0,93,0.00,,,0.00,Wunderground v.1.15,2013-09-13 10:25:00,
2013-09-13 06:30:00,71.3,68.9,29.86,NW,319,1.0,1.0,92,0.00,,,0.00,Wunderground v.1.15,2013-09-13 10:30:00,
2013-09-13 06:40:00,71.3,68.9,29.86,West,276,1.0,1.0,92,0.00,,,0.00,Wunderground v.1.15,2013-09-13 10:40:00,
2013-09-13 06:45:00,71.3,68.9,29.86,NW,307,1.0,1.0,92,0.00,,,0.00,Wunderground v.1.15,2013-09-13 10:45:00,
2013-09-13 06:55:00,71.2,68.8,29.87,NNW,329,1.0,3.0,92,0.00,,,0.00,Wunderground v.1.15,2013-09-13 10:55:00,
2013-09-13 07:00:00,71.1,68.7,29.87,NNW,339,1.0,2.0,92,0.00,,,0.00,Wunderground v.1.15,2013-09-13 11:00:00,
2013-09-13 07:05:00,71.0,68.9,29.87,West,263,2.0,2.0,93,0.00,,,0.00,Wunderground v.1.15,2013-09-13 11:05:00,
2013-09-13 07:10:00,71.0,68.9,29.87,WSW,252,2.0,4.0,93,0.00,,,0.00,Wunderground v.1.15,2013-09-13 11:10:00,
2013-09-13 07:15:00,71.0,68.9,29.87,NW,319,2.0,4.0,93,0.00,,,0.00,Wunderground v.1.15,2013-09-13 11:15:00,
2013-09-13 07:25:00,70.9,68.8,29.87,WNW,291,1.0,4.0,93,0.00,,,0.00,Wunderground v.1.15,2013-09-13 11:25:00,
2013-09-13 07:30:00,70.9,68.8,29.87,NNW,342,1.0,3.0,93,0.00,,,0.00,Wunderground v.1.15,2013-09-13 11:30:00,
2013-09-13 07:35:00,70.9,68.8,29.87,West,271,1.0,3.0,93,0.00,,,0.00,Wunderground v.1.15,2013-09-13 11:35:00,
2013-09-13 07:45:00,70.9,68.8,29.87,West,260,0.0,1.0,93,0.00,,,0.00,Wunderground v.1.15,2013-09-13 11:45:00,
2013-09-13 07:55:00,71.3,68.9,29.88,West,260,0.0,0.0,92,0.00,,,0.00,Wunderground v.1.15,2013-09-13 11:55:00,
2013-09-13 08:00:00,71.7,69.3,29.88,NW,311,1.0,1.0,92,0.00,,,0.00,Wunderground v.1.15,2013-09-13 12:00:00,
2013-09-13 08:10:00,72.2,69.4,29.88,WSW,248,1.0,1.0,91,0.00,,,0.00,Wunderground v.1.15,2013-09-13 12:10:00,
2013-09-13 08:15:00,72.4,69.3,29.88,North,355,1.0,1.0,90,0.00,,,0.00,Wunderground v.1.15,2013-09-13 12:15:00,
2013-09-13 08:20:00,72.6,69.5,29.88,West,280,1.0,2.0,90,0.00,,,0.00,Wunderground v.1.15,2013-09-13 12:20:00,
2013-09-13 08:25:00,72.8,69.7,29.88,NW,323,2.0,2.0,90,0.00,,,0.00,Wunderground v.1.15,2013-09-13 12:25:00,
2013-09-13 08:35:00,73.4,70.0,29.88,West,259,2.0,3.0,89,0.00,,,0.00,Wunderground v.1.15,2013-09-13 12:35:00,
2013-09-13 08:45:00,73.9,70.1,29.88,NW,320,2.0,3.0,88,0.00,,,0.00,Wunderground v.1.15,2013-09-13 12:45:00,
2013-09-13 08:50:00,74.3,70.2,29.88,NNW,330,3.0,3.0,87,0.00,,,0.00,Wunderground v.1.15,2013-09-13 12:50:00,
2013-09-13 08:55:00,74.6,70.5,29.87,North,360,3.0,4.0,87,0.00,,,0.00,Wunderground v.1.15,2013-09-13 12:55:00,
2013-09-13 09:00:00,74.9,70.8,29.88,NW,318,3.0,3.0,87,0.00,,,0.00,Wunderground v.1.15,2013-09-13 13:00:00,
2013-09-13 09:10:00,75.3,70.5,29.88,North,355,3.0,3.0,85,0.00,,,0.00,Wunderground v.1.15,2013-09-13 13:10:00,
2013-09-13 09:15:00,75.7,70.9,29.88,NNW,327,3.0,4.0,85,0.00,,,0.00,Wunderground v.1.15,2013-09-13 13:15:00,
2013-09-13 09:20:00,76.0,71.2,29.87,NNW,341,3.0,3.0,85,0.00,,,0.00,Wunderground v.1.15,2013-09-13 13:20:00,
2013-09-13 09:25:00,76.3,71.1,29.88,NNE,13,3.0,3.0,84,0.00,,,0.00,Wunderground v.1.15,2013-09-13 13:25:00,
2013-09-13 09:35:00,76.7,70.8,29.88,NW,323,4.0,5.0,82,0.00,,,0.00,Wunderground v.1.15,2013-09-13 13:35:00,
2013-09-13 09:40:00,77.1,71.2,29.88,NNW,329,4.0,4.0,82,0.00,,,0.00,Wunderground v.1.15,2013-09-13 13:40:00,
2013-09-13 09:45:00,77.4,71.1,29.88,West,259,4.0,4.0,81,0.00,,,0.00,Wunderground v.1.15,2013-09-13 13:45:00,
2013-09-13 09:55:00,77.8,71.1,29.88,WNW,300,4.0,6.0,80,0.00,,,0.00,Wunderground v.1.15,2013-09-13 13:55:00,
2013-09-13 10:00:00,78.3,71.2,29.88,West,271,4.0,4.0,79,0.00,,,0.00,Wunderground v.1.15,2013-09-13 14:00:00,
2013-09-13 10:05:00,78.8,71.7,29.88,NNW,348,4.0,5.0,79,0.00,,,0.00,Wunderground v.1.15,2013-09-13 14:05:00,
2013-09-13 10:10:00,79.4,72.3,29.88,NNW,331,4.0,5.0,79,0.00,,,0.00,Wunderground v.1.15,2013-09-13 14:10:00,
2013-09-13 10:15:00,79.9,72.4,29.88,North,5,4.0,5.0,78,0.00,,,0.00,Wunderground v.1.15,2013-09-13 14:15:00,
2013-09-13 10:25:00,80.4,72.9,29.88,North,355,4.0,4.0,78,0.00,,,0.00,Wunderground v.1.15,2013-09-13 14:25:00,
2013-09-13 10:35:00,80.4,71.7,29.89,NNW,342,4.0,9.0,75,0.00,,,0.00,Wunderground v.1.15,2013-09-13 14:35:00,
2013-09-13 10:40:00,80.6,71.9,29.89,North,355,4.0,4.0,75,0.00,,,0.00,Wunderground v.1.15,2013-09-13 14:40:00,
2013-09-13 10:45:00,80.9,71.4,29.88,NW,323,5.0,5.0,73,0.00,,,0.00,Wunderground v.1.15,2013-09-13 14:45:00,
2013-09-13 10:55:00,80.7,71.6,29.88,NNW,333,4.0,7.0,74,0.00,,,0.00,Wunderground v.1.15,2013-09-13 14:55:00,
2013-09-13 11:00:00,80.8,72.1,29.88,NW,326,4.0,4.0,75,0.00,,,0.00,Wunderground v.1.15,2013-09-13 15:00:00,
2013-09-13 11:05:00,81.3,71.4,29.89,NW,319,3.0,4.0,72,0.00,,,0.00,Wunderground v.1.15,2013-09-13 15:05:00,
2013-09-13 11:10:00,81.9,71.6,29.88,North,360,4.0,4.0,71,0.00,,,0.00,Wunderground v.1.15,2013-09-13 15:10:00,
2013-09-13 11:15:00,82.2,71.4,29.88,NW,321,4.0,4.0,70,0.00,,,0.00,Wunderground v.1.15,2013-09-13 15:15:00,
2013-09-13 11:25:00,83.0,70.5,29.89,North,360,5.0,6.0,66,0.00,,,0.00,Wunderground v.1.15,2013-09-13 15:25:00,
2013-09-13 11:30:00,82.8,69.8,29.89,NNE,12,5.0,6.0,65,0.00,,,0.00,Wunderground v.1.15,2013-09-13 15:30:00,
2013-09-13 11:35:00,82.7,70.2,29.88,West,275,5.0,6.0,66,0.00,,,0.00,Wunderground v.1.15,2013-09-13 15:35:00,
2013-09-13 11:40:00,82.8,69.8,29.88,NNW,327,4.0,4.0,65,0.00,,,0.00,Wunderground v.1.15,2013-09-13 15:40:00,
2013-09-13 11:45:00,83.2,71.1,29.88,North,350,4.0,4.0,67,0.00,,,0.00,Wunderground v.1.15,2013-09-13 15:45:00,
2013-09-13 11:55:00,83.9,70.4,29.88,NE,38,4.0,4.0,64,0.00,,,0.00,Wunderground v.1.15,2013-09-13 15:55:00,
2013-09-13 12:00:00,84.2,70.7,29.88,West,273,4.0,5.0,64,0.00,,,0.00,Wunderground v.1.15,2013-09-13 16:00:00,
2013-09-13 12:05:00,84.2,70.7,29.88,NNW,345,4.0,5.0,64,0.00,,,0.00,Wunderground v.1.15,2013-09-13 16:05:00,
2013-09-13 12:10:00,84.6,71.1,29.88,NNW,345,4.0,5.0,64,0.00,,,0.00,Wunderground v.1.15,2013-09-13 16:10:00,
2013-09-13 12:20:00,84.0,70.0,29.88,North,5,4.0,6.0,63,0.00,,,0.00,Wunderground v.1.15,2013-09-13 16:20:00,
2013-09-13 12:30:00,84.5,70.0,29.88,North,5,5.0,5.0,62,0.00,,,0.00,Wunderground v.1.15,2013-09-13 16:30:00,
2013-09-13 12:35:00,84.5,69.6,29.88,North,360,5.0,6.0,61,0.00,,,0.00,Wunderground v.1.15,2013-09-13 16:35:00,
2013-09-13 12:40:00,85.0,69.6,29.87,North,355,5.0,5.0,60,0.00,,,0.00,Wunderground v.1.15,2013-09-13 16:40:00,
2013-09-13 12:45:00,85.4,68.9,29.87,NNW,345,4.0,9.0,58,0.00,,,0.00,Wunderground v.1.15,2013-09-13 16:45:00,
2013-09-13 12:50:00,85.5,69.0,29.87,NNW,329,5.0,5.0,58,0.00,,,0.00,Wunderground v.1.15,2013-09-13 16:50:00,
2013-09-13 13:00:00,85.3,69.3,29.86,NNW,337,4.0,4.0,59,0.00,,,0.00,Wunderground v.1.15,2013-09-13 17:00:00,
2013-09-13 13:05:00,85.6,70.1,29.86,SW,217,3.0,4.0,60,0.00,,,0.00,Wunderground v.1.15,2013-09-13 17:05:00,
2013-09-13 13:15:00,85.7,70.2,29.86,NE,55,3.0,3.0,60,0.00,,,0.00,Wunderground v.1.15,2013-09-13 17:15:00,
2013-09-13 13:25:00,86.0,69.5,29.86,NW,322,3.0,5.0,58,0.00,,,0.00,Wunderground v.1.15,2013-09-13 17:25:00,
2013-09-13 13:30:00,86.3,69.3,29.86,North,360,3.0,6.0,57,0.00,,,0.00,Wunderground v.1.15,2013-09-13 17:30:00,
2013-09-13 13:40:00,86.5,70.0,29.86,WNW,293,4.0,4.0,58,0.00,,,0.00,Wunderground v.1.15,2013-09-13 17:40:00,
2013-09-13 13:45:00,86.6,69.6,29.85,North,360,4.0,6.0,57,0.00,,,0.00,Wunderground v.1.15,2013-09-13 17:45:00,
2013-09-13 13:55:00,86.5,70.0,29.85,North,360,4.0,4.0,58,0.00,,,0.00,Wunderground v.1.15,2013-09-13 17:55:00,
2013-09-13 14:00:00,86.2,67.6,29.84,NW,317,5.0,5.0,54,0.00,,,0.00,Wunderground v.1.15,2013-09-13 18:00:00,
2013-09-13 14:05:00,86.3,67.7,29.84,NNW,344,4.0,5.0,54,0.00,,,0.00,Wunderground v.1.15,2013-09-13 18:05:00,
2013-09-13 14:10:00,86.4,68.3,29.84,SW,220,3.0,3.0,55,0.00,,,0.00,Wunderground v.1.15,2013-09-13 18:10:00,
2013-09-13 14:15:00,87.4,69.3,29.84,West,275,3.0,3.0,55,0.00,,,0.00,Wunderground v.1.15,2013-09-13 18:15:00,
2013-09-13 14:25:00,87.7,66.8,29.84,NW,321,3.0,3.0,50,0.00,,,0.00,Wunderground v.1.15,2013-09-13 18:25:00,
2013-09-13 14:35:00,86.9,68.8,29.84,NNW,334,3.0,5.0,55,0.00,,,0.00,Wunderground v.1.15,2013-09-13 18:35:00,
2013-09-13 14:40:00,87.0,67.8,29.84,WNW,286,3.0,5.0,53,0.00,,,0.00,Wunderground v.1.15,2013-09-13 18:40:00,
2013-09-13 14:45:00,86.8,68.2,29.83,NW,323,3.0,5.0,54,0.00,,,0.00,Wunderground v.1.15,2013-09-13 18:45:00,
2013-09-13 14:55:00,87.6,69.4,29.83,NW,307,2.0,3.0,55,0.00,,,0.00,Wunderground v.1.15,2013-09-13 18:55:00,
2013-09-13 15:00:00,88.2,68.4,29.83,NW,309,2.0,5.0,52,0.00,,,0.00,Wunderground v.1.15,2013-09-13 19:00:00,
2013-09-13 15:05:00,87.9,68.1,29.83,NNE,13,4.0,9.0,52,0.00,,,0.00,Wunderground v.1.15,2013-09-13 19:05:00,
2013-09-13 15:10:00,87.4,68.2,29.83,NNE,29,5.0,5.0,53,0.00,,,0.00,Wunderground v.1.15,2013-09-13 19:10:00,
2013-09-13 15:15:00,87.6,67.8,29.82,NNW,344,4.0,7.0,52,0.00,,,0.00,Wunderground v.1.15,2013-09-13 19:15:00,
2013-09-13 15:25:00,88.2,68.4,29.82,North,360,3.0,4.0,52,0.00,,,0.00,Wunderground v.1.15,2013-09-13 19:25:00,
2013-09-13 15:30:00,88.3,66.7,29.82,North,10,2.0,3.0,49,0.00,,,0.00,Wunderground v.1.15,2013-09-13 19:30:00,
2013-09-13 15:35:00,88.1,66.5,29.82,WNW,290,4.0,4.0,49,0.00,,,0.00,Wunderground v.1.15,2013-09-13 19:35:00,
2013-09-13 15:40:00,88.1,65.9,29.82,WSW,245,4.0,4.0,48,0.00,,,0.00,Wunderground v.1.15,2013-09-13 19:40:00,
2013-09-13 15:45:00,88.0,65.8,29.82,WNW,286,3.0,4.0,48,0.00,,,0.00,Wunderground v.1.15,2013-09-13 19:45:00,
2013-09-13 15:55:00,87.1,65.6,29.81,North,355,2.0,4.0,49,0.00,,,0.00,Wunderground v.1.15,2013-09-13 19:55:00,
2013-09-13 16:00:00,87.5,65.4,29.81,NW,313,3.0,3.0,48,0.00,,,0.00,Wunderground v.1.15,2013-09-13 20:00:00,
2013-09-13 16:05:00,87.4,66.5,29.81,West,279,3.0,3.0,50,0.00,,,0.00,Wunderground v.1.15,2013-09-13 20:05:00,
2013-09-13 16:10:00,87.0,66.7,29.81,West,263,2.0,4.0,51,0.00,,,0.00,Wunderground v.1.15,2013-09-13 20:10:00,
2013-09-13 16:20:00,86.7,66.4,29.81,WSW,250,2.0,5.0,51,0.00,,,0.00,Wunderground v.1.15,2013-09-13 20:20:00,
2013-09-13 16:30:00,88.3,66.1,29.80,WSW,242,2.0,2.0,48,0.00,,,0.00,Wunderground v.1.15,2013-09-13 20:30:00,
2013-09-13 16:35:00,88.7,65.3,29.80,West,269,2.0,2.0,46,0.00,,,0.00,Wunderground v.1.15,2013-09-13 20:35:00,
2013-09-13 16:40:00,89.1,64.3,29.80,West,265,2.0,2.0,44,0.00,,,0.00,Wunderground v.1.15,2013-09-13 20:40:00,
2013-09-13 16:45:00,89.1,63.7,29.80,NW,313,2.0,4.0,43,0.00,,,0.00,Wunderground v.1.15,2013-09-13 20:45:00,
2013-09-13 16:55:00,88.5,65.1,29.80,WNW,291,2.0,3.0,46,0.00,,,0.00,Wunderground v.1.15,2013-09-13 20:55:00,
2013-09-13 17:00:00,89.1,66.2,29.80,WNW,299,2.0,4.0,47,0.00,,,0.00,Wunderground v.1.15,2013-09-13 21:00:00,
2013-09-13 17:05:00,89.4,64.0,29.80,WNW,301,2.0,4.0,43,0.00,,,0.00,Wunderground v.1.15,2013-09-13 21:05:00,
2013-09-13 17:10:00,89.3,65.2,29.80,NW,323,3.0,3.0,45,0.00,,,0.00,Wunderground v.1.15,2013-09-13 21:10:00,
2013-09-13 17:20:00,89.4,63.3,29.80,West,271,3.0,6.0,42,0.00,,,0.00,Wunderground v.1.15,2013-09-13 21:20:00,
2013-09-13 17:25:00,88.9,61.5,29.80,WNW,300,4.0,6.0,40,0.00,,,0.00,Wunderground v.1.15,2013-09-13 21:25:00,
2013-09-13 17:30:00,88.6,61.9,29.80,West,274,4.0,4.0,41,0.00,,,0.00,Wunderground v.1.15,2013-09-13 21:30:00,
2013-09-13 17:35:00,87.9,61.9,29.80,NW,315,5.0,7.0,42,0.00,,,0.00,Wunderground v.1.15,2013-09-13 21:35:00,
2013-09-13 17:40:00,87.8,61.9,29.80,West,275,5.0,5.0,42,0.00,,,0.00,Wunderground v.1.15,2013-09-13 21:40:00,
2013-09-13 17:45:00,87.9,61.3,29.80,WNW,290,3.0,11.0,41,0.00,,,0.00,Wunderground v.1.15,2013-09-13 21:45:00,
2013-09-13 17:55:00,87.8,61.2,29.80,NNW,337,5.0,5.0,41,0.00,,,0.00,Wunderground v.1.15,2013-09-13 21:55:00,
2013-09-13 18:00:00,87.9,59.8,29.80,WNW,287,4.0,4.0,39,0.00,,,0.00,Wunderground v.1.15,2013-09-13 22:00:00,
2013-09-13 18:05:00,87.7,60.4,29.80,NNW,336,4.0,4.0,40,0.00,,,0.00,Wunderground v.1.15,2013-09-13 22:05:00,
2013-09-13 18:15:00,87.2,60.6,29.80,NNW,348,4.0,4.0,41,0.00,,,0.00,Wunderground v.1.15,2013-09-13 22:15:00,
2013-09-13 18:25:00,86.6,61.4,29.80,NNW,333,3.0,4.0,43,0.00,,,0.00,Wunderground v.1.15,2013-09-13 22:25:00,
2013-09-13 18:30:00,86.5,62.6,29.80,NNW,344,2.0,3.0,45,0.00,,,0.00,Wunderground v.1.15,2013-09-13 22:30:00,
2013-09-13 18:40:00,86.1,62.3,29.81,NNW,342,2.0,2.0,45,0.00,,,0.00,Wunderground v.1.15,2013-09-13 22:40:00,
2013-09-13 18:45:00,85.5,63.0,29.81,NNW,339,2.0,2.0,47,0.00,,,0.00,Wunderground v.1.15,2013-09-13 22:45:00,
2013-09-13 18:50:00,84.8,63.5,29.81,NW,319,1.0,1.0,49,0.00,,,0.00,Wunderground v.1.15,2013-09-13 22:50:00,
2013-09-13 18:55:00,84.1,64.0,29.81,NW,319,0.0,1.0,51,0.00,,,0.00,Wunderground v.1.15,2013-09-13 22:55:00,
2013-09-13 19:00:00,83.2,64.3,29.81,NW,319,0.0,0.0,53,0.00,,,0.00,Wunderground v.1.15,2013-09-13 23:00:00,
2013-09-13 19:10:00,80.9,64.7,29.81,NW,319,0.0,0.0,58,0.00,,,0.00,Wunderground v.1.15,2013-09-13 23:10:00,
2013-09-13 19:15:00,79.9,65.2,29.81,NW,319,0.0,0.0,61,0.00,,,0.00,Wunderground v.1.15,2013-09-13 23:15:00,
2013-09-13 19:25:00,78.2,65.5,29.82,NW,319,0.0,0.0,65,0.00,,,0.00,Wunderground v.1.15,2013-09-13 23:25:00,
2013-09-13 19:30:00,77.4,66.0,29.82,NW,319,0.0,0.0,68,0.00,,,0.00,Wunderground v.1.15,2013-09-13 23:30:00,
2013-09-13 19:40:00,75.9,66.6,29.82,NW,319,0.0,0.0,73,0.00,,,0.00,Wunderground v.1.15,2013-09-13 23:40:00,
2013-09-13 19:45:00,75.0,66.5,29.82,NW,319,0.0,0.0,75,0.00,,,0.00,Wunderground v.1.15,2013-09-13 23:45:00,
2013-09-13 19:50:00,74.3,66.6,29.83,NW,319,0.0,0.0,77,0.00,,,0.00,Wunderground v.1.15,2013-09-13 23:50:00,
2013-09-13 19:55:00,73.7,64.1,29.83,NW,319,0.0,1.0,72,0.00,,,0.00,Wunderground v.1.15,2013-09-13 23:55:00,
2013-09-13 20:00:00,73.4,65.0,29.83,NW,319,0.0,0.0,75,0.00,,,0.00,Wunderground v.1.15,2013-09-14 00:00:00,
2013-09-13 20:10:00,73.9,64.3,29.83,NW,313,0.0,2.0,72,0.00,,,0.00,Wunderground v.1.15,2013-09-14 00:10:00,
2013-09-13 20:15:00,74.1,64.1,29.84,NW,304,0.0,2.0,71,0.00,,,0.00,Wunderground v.1.15,2013-09-14 00:15:00,
2013-09-13 20:25:00,74.8,64.4,29.84,NW,325,1.0,1.0,70,0.00,,,0.00,Wunderground v.1.15,2013-09-14 00:25:00,
2013-09-13 20:30:00,74.8,63.9,29.84,NW,313,0.0,3.0,69,0.00,,,0.00,Wunderground v.1.15,2013-09-14 00:30:00,
2013-09-13 20:40:00,74.3,64.3,29.85,West,270,1.0,1.0,71,0.00,,,0.00,Wunderground v.1.15,2013-09-14 00:40:00,
2013-09-13 20:45:00,74.1,63.3,29.85,WNW,295,1.0,1.0,69,0.00,,,0.00,Wunderground v.1.15,2013-09-14 00:45:00,
2013-09-13 20:50:00,73.9,63.5,29.85,WNW,295,1.0,1.0,70,0.00,,,0.00,Wunderground v.1.15,2013-09-14 00:50:00,
2013-09-13 20:55:00,73.6,63.2,29.85,NW,325,0.0,1.0,70,0.00,,,0.00,Wunderground v.1.15,2013-09-14 00:55:00,
2013-09-13 21:05:00,72.9,63.7,29.86,NW,321,1.0,1.0,73,0.00,,,0.00,Wunderground v.1.15,2013-09-14 01:05:00,
2013-09-13 21:10:00,72.3,63.5,29.86,NW,321,0.0,0.0,74,0.00,,,0.00,Wunderground v.1.15,2013-09-14 01:10:00,
2013-09-13 21:15:00,71.9,63.5,29.86,NW,321,0.0,0.0,75,0.00,,,0.00,Wunderground v.1.15,2013-09-14 01:15:00,
2013-09-13 21:25:00,71.2,63.6,29.86,NW,321,0.0,1.0,77,0.00,,,0.00,Wunderground v.1.15,2013-09-14 01:25:00,
2013-09-13 21:30:00,70.9,64.1,29.86,NW,321,0.0,0.0,79,0.00,,,0.00,Wunderground v.1.15,2013-09-14 01:30:00,
2013-09-13 21:35:00,70.3,63.8,29.87,NW,321,0.0,0.0,80,0.00,,,0.00,Wunderground v.1.15,2013-09-14 01:35:00,
2013-09-13 21:40:00,69.8,64.1,29.87,NW,321,0.0,0.0,82,0.00,,,0.00,Wunderground v.1.15,2013-09-14 01:40:00,
2013-09-13 21:45:00,69.3,63.9,29.87,NW,321,0.0,0.0,83,0.00,,,0.00,Wunderground v.1.15,2013-09-14 01:45:00,
2013-09-13 21:55:00,68.6,63.2,29.87,NW,321,0.0,0.0,83,0.00,,,0.00,Wunderground v.1.15,2013-09-14 01:55:00,
2013-09-13 22:00:00,68.3,62.9,29.87,NW,321,0.0,0.0,83,0.00,,,0.00,Wunderground v.1.15,2013-09-14 02:00:00,
2013-09-13 22:10:00,67.7,63.0,29.87,NW,321,0.0,0.0,85,0.00,,,0.00,Wunderground v.1.15,2013-09-14 02:10:00,
2013-09-13 22:15:00,67.5,63.2,29.88,NW,321,0.0,0.0,86,0.00,,,0.00,Wunderground v.1.15,2013-09-14 02:15:00,
2013-09-13 22:20:00,67.3,63.3,29.88,NW,321,0.0,0.0,87,0.00,,,0.00,Wunderground v.1.15,2013-09-14 02:20:00,
2013-09-13 22:25:00,67.1,63.1,29.88,NW,321,0.0,0.0,87,0.00,,,0.00,Wunderground v.1.15,2013-09-14 02:25:00,
2013-09-13 22:30:00,66.9,63.2,29.88,NW,321,0.0,0.0,88,0.00,,,0.00,Wunderground v.1.15,2013-09-14 02:30:00,
2013-09-13 22:40:00,66.6,62.9,29.88,NW,321,0.0,0.0,88,0.00,,,0.00,Wunderground v.1.15,2013-09-14 02:40:00,
2013-09-13 22:45:00,66.4,62.7,29.88,NW,321,0.0,0.0,88,0.00,,,0.00,Wunderground v.1.15,2013-09-14 02:45:00,
2013-09-13 22:50:00,66.3,62.6,29.89,NW,321,0.0,1.0,88,0.00,,,0.00,Wunderground v.1.15,2013-09-14 02:50:00,
2013-09-13 22:55:00,66.2,62.5,29.89,NW,321,1.0,1.0,88,0.00,,,0.00,Wunderground v.1.15,2013-09-14 02:55:00,
2013-09-13 23:00:00,66.1,62.4,29.89,NW,321,1.0,1.0,88,0.00,,,0.00,Wunderground v.1.15,2013-09-14 03:00:00,
2013-09-13 23:10:00,66.0,62.7,29.89,NW,321,0.0,1.0,89,0.00,,,0.00,Wunderground v.1.15,2013-09-14 03:10:00,
2013-09-13 23:15:00,66.2,62.9,29.89,NW,323,1.0,1.0,89,0.00,,,0.00,Wunderground v.1.15,2013-09-14 03:15:00,
2013-09-13 23:25:00,66.8,62.8,29.89,NNW,340,1.0,1.0,87,0.00,,,0.00,Wunderground v.1.15,2013-09-14 03:25:00,
2013-09-13 23:30:00,66.9,62.2,29.89,NNW,329,1.0,1.0,85,0.00,,,0.00,Wunderground v.1.15,2013-09-14 03:30:00,
2013-09-13 23:40:00,67.0,62.3,29.89,NNW,338,1.0,1.0,85,0.00,,,0.00,Wunderground v.1.15,2013-09-14 03:40:00,
2013-09-13 23:45:00,66.9,62.2,29.90,NNW,338,1.0,1.0,85,0.00,,,0.00,Wunderground v.1.15,2013-09-14 03:45:00,
2013-09-13 23:50:00,66.8,62.1,29.90,NNW,334,1.0,1.0,85,0.00,,,0.00,Wunderground v.1.15,2013-09-14 03:50:00,
2013-09-13 23:55:00,66.8,62.1,29.90,NW,311,1.0,1.0,85,0.00,,,0.00,Wunderground v.1.15,2013-09-14 03:55:00,